Time;durP1;ratioP1;P1;durP2;ratioP2;P2;SDS_P1;SDS_P2;PMS_P1;PMS_P2;Temp;Humidity;BMP_temperature;BMP_pressure;BME280_temperature;BME280_humidity;BME280_pressure;Samples;Min_cycle;Max_cycle;Signal;HPM_P1;HPM_P2
2022/07/23 00:00:30;;;;;;;12.48;11.15;;;23.30;99.90;;;;;;5055844;28;20048;-64
2022/07/23 00:03:05;;;;;;;13.63;12.07;;;23.30;99.90;;;;;;5057431;28;20072;-65
2022/07/23 00:05:33;;;;;;;13.85;12.18;;;23.30;99.90;;;;;;5047557;28;20503;-64
2022/07/23 00:08:01;;;;;;;14.75;12.02;;;23.20;99.90;;;;;;5051409;28;20094;-64
2022/07/23 00:10:29;;;;;;;14.38;12.82;;;23.20;99.90;;;;;;5061860;28;20489;-64
2022/07/23 00:12:56;;;;;;;14.55;12.90;;;23.10;99.90;;;;;;5047606;28;20491;-65
2022/07/23 00:15:23;;;;;;;14.25;12.68;;;23.10;99.90;;;;;;5047494;28;20452;-65
2022/07/23 00:17:51;;;;;;;17.20;13.27;;;23.10;99.90;;;;;;5047425;28;20499;-64
2022/07/23 00:20:18;;;;;;;15.20;12.48;;;23.10;99.90;;;;;;5054862;28;20044;-65
2022/07/23 00:22:51;;;;;;;14.65;13.10;;;23.10;99.90;;;;;;5063772;28;20120;-63
2022/07/23 00:25:20;;;;;;;13.75;12.43;;;23.00;99.90;;;;;;5064478;28;20037;-64
2022/07/23 00:28:00;;;;;;;15.35;13.73;;;23.00;99.90;;;;;;5064014;28;20433;-64
2022/07/23 00:30:29;;;;;;;15.32;13.73;;;22.90;99.90;;;;;;5064720;28;20444;-64
2022/07/23 00:33:03;;;;;;;15.10;13.57;;;22.90;99.90;;;;;;5052159;28;20045;-65
2022/07/23 00:35:36;;;;;;;15.65;13.82;;;22.80;99.90;;;;;;5063615;28;20052;-64
2022/07/23 00:38:04;;;;;;;16.92;13.80;;;22.80;99.90;;;;;;5066699;28;20064;-64
2022/07/23 00:40:34;;;;;;;14.48;12.98;;;22.60;99.90;;;;;;5046440;28;20049;-65
2022/07/23 00:43:02;;;;;;;14.93;13.35;;;22.50;99.90;;;;;;5050779;28;20135;-65
2022/07/23 00:45:30;;;;;;;15.05;13.55;;;22.40;99.90;;;;;;5050691;28;20404;-65
2022/07/23 00:47:58;;;;;;;14.55;13.07;;;22.40;99.90;;;;;;5067085;28;20072;-65
2022/07/23 00:50:26;;;;;;;15.43;13.93;;;22.30;99.90;;;;;;5070786;28;20040;-65
2022/07/23 00:52:53;;;;;;;16.25;14.20;;;22.30;99.90;;;;;;5054882;28;20106;-65
2022/07/23 00:55:21;;;;;;;16.05;14.45;;;22.20;99.90;;;;;;5056557;28;20102;-65
2022/07/23 00:57:50;;;;;;;18.02;14.27;;;22.10;99.90;;;;;;5067221;28;20136;-65
2022/07/23 01:00:18;;;;;;;15.98;14.38;;;22.10;99.90;;;;;;5070035;28;20124;-65
2022/07/23 01:02:45;;;;;;;18.27;14.32;;;22.10;99.90;;;;;;5068746;28;20503;-65
2022/07/23 01:05:15;;;;;;;16.95;14.27;;;22.10;99.90;;;;;;5055184;28;20127;-65
2022/07/23 01:07:43;;;;;;;15.68;14.10;;;22.00;99.90;;;;;;5054753;28;20080;-65
2022/07/23 01:12:57;;;;;;;18.00;13.95;;;22.00;99.90;;;;;;5065100;28;20051;-65
2022/07/23 01:15:24;;;;;;;16.30;13.55;;;22.00;99.90;;;;;;5070555;28;20465;-65
2022/07/23 01:17:52;;;;;;;15.98;14.23;;;22.00;99.90;;;;;;5069495;28;20056;-67
2022/07/23 01:20:20;;;;;;;17.52;13.70;;;22.00;99.90;;;;;;5049442;28;20057;-65
2022/07/23 01:22:47;;;;;;;15.10;12.80;;;22.00;99.90;;;;;;5061965;28;20399;-65
2022/07/23 01:25:15;;;;;;;14.77;13.20;;;22.00;99.90;;;;;;5067535;28;20052;-65
2022/07/23 01:27:53;;;;;;;15.55;13.93;;;22.10;99.90;;;;;;5068371;28;20040;-65
2022/07/23 01:30:20;;;;;;;13.50;12.10;;;22.10;99.90;;;;;;5067458;28;20499;-65
2022/07/23 01:32:51;;;;;;;15.10;13.60;;;22.10;99.90;;;;;;5044570;28;20436;-65
2022/07/23 01:35:19;;;;;;;16.45;14.25;;;22.10;99.90;;;;;;5055071;28;20481;-65
2022/07/23 01:37:47;;;;;;;14.98;13.30;;;22.10;99.90;;;;;;5064999;28;20102;-65
2022/07/23 01:40:16;;;;;;;15.15;13.15;;;22.10;99.90;;;;;;5068395;28;20122;-65
2022/07/23 01:42:45;;;;;;;20.63;15.13;;;22.10;99.90;;;;;;5068563;28;20490;-66
2022/07/23 01:45:14;;;;;;;18.33;15.60;;;22.10;99.90;;;;;;5068890;28;20435;-65
2022/07/23 01:47:47;;;;;;;18.25;14.65;;;22.10;99.90;;;;;;5068883;28;20036;-65
2022/07/23 01:50:14;;;;;;;21.10;16.15;;;22.20;99.90;;;;;;5065667;28;20541;-65
2022/07/23 01:53:17;;;;;;;18.88;15.18;;;22.20;99.90;;;;;;5016134;28;20057;-65
2022/07/23 01:55:45;;;;;;;19.15;15.85;;;22.10;99.90;;;;;;5022701;28;20499;-65
2022/07/23 01:58:12;;;;;;;18.02;14.70;;;22.10;99.90;;;;;;5022230;28;20110;-64
2022/07/23 02:00:39;;;;;;;19.85;15.30;;;22.10;99.90;;;;;;5038129;28;20057;-65
2022/07/23 02:03:08;;;;;;;17.35;14.63;;;22.00;99.90;;;;;;5044618;28;20045;-65
2022/07/23 02:05:37;;;;;;;19.10;14.70;;;22.00;99.90;;;;;;5024164;28;20095;-65
2022/07/23 02:08:05;;;;;;;17.33;15.07;;;22.00;99.90;;;;;;5030657;28;20049;-65
2022/07/23 02:10:35;;;;;;;18.48;15.18;;;22.00;99.90;;;;;;5030440;28;20493;-65
2022/07/23 02:13:03;;;;;;;16.23;14.55;;;22.00;99.90;;;;;;5024861;28;20049;-66
2022/07/23 02:15:30;;;;;;;16.30;14.70;;;21.90;99.90;;;;;;5034736;28;20044;-68
2022/07/23 02:17:58;;;;;;;16.17;13.93;;;21.90;99.90;;;;;;5027089;28;20076;-65
2022/07/23 02:20:26;;;;;;;16.35;14.55;;;21.90;99.90;;;;;;5013908;28;20057;-65
2022/07/23 02:22:53;;;;;;;16.42;14.55;;;21.90;99.90;;;;;;5042808;28;20518;-65
2022/07/23 02:25:21;;;;;;;15.15;13.55;;;21.80;99.90;;;;;;5027088;28;20354;-65
2022/07/23 02:27:54;;;;;;;17.38;13.65;;;21.80;99.90;;;;;;5030679;28;20131;-67
2022/07/23 02:30:21;;;;;;;14.85;13.20;;;21.90;99.90;;;;;;5058101;28;20446;-65
2022/07/23 02:32:49;;;;;;;15.52;13.75;;;21.90;99.90;;;;;;5053430;28;20037;-65
2022/07/23 02:35:16;;;;;;;18.08;14.25;;;21.90;99.90;;;;;;5065654;28;20075;-65
2022/07/23 02:37:43;;;;;;;18.33;14.20;;;21.90;99.90;;;;;;5066410;28;20052;-65
2022/07/23 02:40:12;;;;;;;15.43;13.85;;;22.00;99.90;;;;;;5061442;28;20040;-65
2022/07/23 02:42:42;;;;;;;16.25;13.55;;;22.00;99.90;;;;;;5062347;28;20049;-65
2022/07/23 02:45:10;;;;;;;15.85;14.25;;;22.00;99.90;;;;;;5067368;28;20533;-65
2022/07/23 02:47:39;;;;;;;16.00;13.63;;;22.00;99.90;;;;;;5033904;28;20044;-66
2022/07/23 02:50:07;;;;;;;16.70;14.18;;;22.00;99.90;;;;;;5064682;28;20064;-65
2022/07/23 02:52:39;;;;;;;;;;;22.00;99.90;;;;;;5066518;28;20127;-65
2022/07/23 02:55:07;;;;;;;15.27;13.65;;;22.00;99.90;;;;;;5060571;28;19963;-66
2022/07/23 02:57:34;;;;;;;16.45;13.93;;;22.00;99.90;;;;;;5057198;28;20744;-65
2022/07/23 03:00:06;;;;;;;16.05;14.40;;;22.00;99.90;;;;;;5067472;28;20105;-65
2022/07/23 03:02:33;;;;;;;16.00;14.38;;;22.00;99.90;;;;;;5068374;28;20340;-68
2022/07/23 03:05:01;;;;;;;17.05;14.07;;;22.00;99.90;;;;;;5065633;28;20491;-67
2022/07/23 03:07:29;;;;;;;17.10;13.52;;;22.00;99.90;;;;;;5067127;28;20040;-66
2022/07/23 03:09:56;;;;;;;15.23;13.52;;;22.00;99.90;;;;;;5068061;28;20048;-65
2022/07/23 03:12:23;;;;;;;18.42;13.95;;;21.90;99.90;;;;;;5057415;28;20078;-65
2022/07/23 03:14:51;;;;;;;15.55;13.93;;;21.90;99.90;;;;;;5046920;28;20097;-68
2022/07/23 03:17:18;;;;;;;19.52;14.27;;;21.90;99.90;;;;;;5059166;28;20044;-65
2022/07/23 03:19:46;;;;;;;16.55;14.77;;;21.80;99.90;;;;;;5038784;28;20103;-65
2022/07/23 03:22:14;;;;;;;17.17;14.35;;;21.80;99.90;;;;;;5063967;28;20434;-65
2022/07/23 03:24:53;;;;;;;17.42;14.13;;;21.70;99.90;;;;;;5066878;28;20557;-65
2022/07/23 03:27:26;;;;;;;16.85;13.82;;;21.70;99.90;;;;;;5064363;28;20097;-64
2022/07/23 03:29:56;;;;;;;15.40;13.80;;;21.60;99.90;;;;;;5066291;28;20056;-65
2022/07/23 03:32:24;;;;;;;18.35;14.52;;;21.60;99.90;;;;;;5053348;28;20067;-65
2022/07/23 03:34:52;;;;;;;17.58;14.23;;;21.60;99.90;;;;;;5017411;28;20137;-65
2022/07/23 03:37:20;;;;;;;17.05;14.38;;;21.50;99.90;;;;;;5040406;28;20419;-65
2022/07/23 03:39:47;;;;;;;16.48;14.77;;;21.50;99.90;;;;;;5058263;28;20040;-65
2022/07/23 03:42:15;;;;;;;16.15;14.48;;;21.50;99.90;;;;;;5066708;28;20053;-65
2022/07/23 03:44:45;;;;;;;15.43;13.90;;;21.50;99.90;;;;;;5049527;28;20041;-66
2022/07/23 03:47:12;;;;;;;15.07;13.48;;;21.50;99.90;;;;;;5054954;28;20048;-65
2022/07/23 03:49:40;;;;;;;14.32;12.88;;;21.40;99.90;;;;;;5065934;28;20448;-65
2022/07/23 03:52:08;;;;;;;15.77;14.07;;;21.40;99.90;;;;;;5062520;28;20041;-65
2022/07/23 03:54:36;;;;;;;14.90;13.30;;;21.40;99.90;;;;;;5045838;28;20045;-65
2022/07/23 03:57:03;;;;;;;15.88;13.73;;;21.30;99.90;;;;;;5066749;28;20519;-65
2022/07/23 03:59:32;;;;;;;15.88;14.07;;;21.30;99.90;;;;;;5064994;28;20048;-65
2022/07/23 04:02:00;;;;;;;15.23;13.80;;;21.30;99.90;;;;;;5053251;28;20040;-65
2022/07/23 04:04:27;;;;;;;15.68;14.07;;;21.30;99.90;;;;;;5057666;28;20510;-65
2022/07/23 04:06:55;;;;;;;16.88;14.68;;;21.20;99.90;;;;;;5040626;28;20049;-65
2022/07/23 04:09:23;;;;;;;15.82;14.13;;;21.20;99.90;;;;;;5060696;28;20041;-65
2022/07/23 04:11:51;;;;;;;18.88;14.60;;;21.20;99.90;;;;;;5069254;28;20521;-65
2022/07/23 04:14:19;;;;;;;17.45;13.77;;;21.20;99.90;;;;;;5070306;28;20041;-66
2022/07/23 04:16:46;;;;;;;17.10;15.30;;;21.20;99.90;;;;;;5068624;28;20093;-65
2022/07/23 04:19:14;;;;;;;16.73;14.18;;;21.20;99.90;;;;;;5069745;28;20462;-65
2022/07/23 04:21:53;;;;;;;19.10;15.77;;;21.20;99.90;;;;;;5067636;28;20045;-65
2022/07/23 04:24:21;;;;;;;17.83;15.85;;;21.20;99.90;;;;;;5057040;28;20048;-65
2022/07/23 04:26:48;;;;;;;16.48;14.77;;;21.20;99.90;;;;;;5066447;28;20036;-66
2022/07/23 04:29:15;;;;;;;16.77;15.05;;;21.30;99.90;;;;;;5068656;28;20510;-66
2022/07/23 04:31:43;;;;;;;21.13;15.02;;;21.30;99.90;;;;;;5060351;28;20419;-65
2022/07/23 04:34:11;;;;;;;15.38;13.88;;;21.30;99.90;;;;;;5049520;28;20453;-66
2022/07/23 04:36:38;;;;;;;15.68;14.07;;;21.40;99.90;;;;;;5052178;28;20128;-66
2022/07/23 04:39:06;;;;;;;15.70;13.77;;;21.50;99.90;;;;;;5068758;28;20043;-65
2022/07/23 04:41:34;;;;;;;16.27;14.18;;;21.50;99.90;;;;;;5058309;28;20036;-65
2022/07/23 04:44:03;;;;;;;16.02;14.32;;;21.60;99.90;;;;;;5060953;28;20044;-65
2022/07/23 04:46:30;;;;;;;16.33;14.57;;;21.70;99.90;;;;;;5054488;28;20124;-65
2022/07/23 04:48:58;;;;;;;15.02;13.43;;;21.80;99.90;;;;;;5050312;28;20562;-65
2022/07/23 04:51:26;;;;;;;17.25;12.68;;;21.80;99.90;;;;;;5054615;28;20529;-65
2022/07/23 04:53:54;;;;;;;13.93;12.63;;;21.90;99.90;;;;;;5059849;28;20040;-66
2022/07/23 04:56:22;;;;;;;18.67;13.20;;;21.90;99.90;;;;;;5055095;28;20399;-65
2022/07/23 04:58:49;;;;;;;14.50;13.00;;;22.00;99.90;;;;;;5060706;28;20490;-65
2022/07/23 05:01:17;;;;;;;18.65;14.05;;;22.10;99.90;;;;;;5058623;28;20120;-65
2022/07/23 05:03:45;;;;;;;14.10;12.70;;;22.20;99.90;;;;;;5057527;28;20499;-65
2022/07/23 05:06:12;;;;;;;12.68;11.38;;;22.20;99.90;;;;;;5058945;28;20067;-65
2022/07/23 05:08:40;;;;;;;14.23;12.88;;;22.30;99.90;;;;;;5080897;28;20048;-66
2022/07/23 05:11:09;;;;;;;13.65;10.68;;;22.30;99.90;;;;;;5053390;28;20033;-65
2022/07/23 05:13:36;;;;;;;14.57;12.02;;;22.40;99.90;;;;;;5059215;28;20044;-66
2022/07/23 05:16:07;;;;;;;12.85;11.57;;;22.50;99.90;;;;;;5062351;28;20556;-65
2022/07/23 05:18:35;;;;;;;12.65;11.45;;;22.50;99.90;;;;;;5055737;28;20049;-65
2022/07/23 05:21:02;;;;;;;13.10;11.82;;;22.60;99.90;;;;;;5050906;28;20466;-66
2022/07/23 05:23:30;;;;;;;11.93;10.77;;;22.70;99.90;;;;;;5051593;28;20049;-65
2022/07/23 05:25:57;;;;;;;12.07;10.93;;;22.70;99.90;;;;;;5054741;28;20036;-65
2022/07/23 05:28:25;;;;;;;12.55;11.30;;;22.90;99.90;;;;;;5056507;28;20132;-66
2022/07/23 05:30:53;;;;;;;11.95;10.68;;;23.00;99.90;;;;;;5066120;28;20064;-66
2022/07/23 05:33:22;;;;;;;11.82;10.63;;;23.00;99.90;;;;;;5048404;28;20041;-66
2022/07/23 05:35:49;;;;;;;10.68;9.68;;;23.00;99.90;;;;;;5062420;28;20117;-66
2022/07/23 05:38:32;;;;;;;12.15;10.48;;;23.10;99.90;;;;;;5049622;28;20843;-66
2022/07/23 05:41:01;;;;;;;12.20;10.98;;;23.20;99.90;;;;;;5061974;28;20567;-65
2022/07/23 05:43:29;;;;;;;11.13;10.02;;;23.40;99.90;;;;;;5048243;28;20129;-65
2022/07/23 05:46:00;;;;;;;12.93;10.13;;;23.60;99.90;;;;;;5049194;28;20037;-66
2022/07/23 05:48:29;;;;;;;10.73;9.57;;;23.70;99.90;;;;;;5050520;28;20112;-65
2022/07/23 05:51:03;;;;;;;11.10;9.82;;;23.80;99.90;;;;;;5065960;28;20052;-65
2022/07/23 05:53:32;;;;;;;11.80;9.35;;;23.90;99.90;;;;;;5053666;28;20040;-66
2022/07/23 05:56:06;;;;;;;10.35;9.40;;;24.00;99.90;;;;;;5067485;28;20044;-66
2022/07/23 05:58:33;;;;;;;10.48;8.75;;;24.10;99.90;;;;;;5067337;28;20498;-65
2022/07/23 06:01:01;;;;;;;9.77;8.88;;;24.10;99.90;;;;;;5067920;28;20098;-66
2022/07/23 06:03:34;;;;;;;10.27;9.25;;;24.20;99.90;;;;;;5060445;28;20041;-65
2022/07/23 06:06:02;;;;;;;10.25;9.25;;;24.00;99.90;;;;;;5061412;28;20051;-66
2022/07/23 06:08:29;;;;;;;9.35;8.45;;;24.00;99.90;;;;;;5066105;28;20040;-65
2022/07/23 06:10:56;;;;;;;9.50;8.70;;;23.90;99.90;;;;;;5066281;28;20467;-66
2022/07/23 06:13:23;;;;;;;12.88;9.13;;;23.80;99.90;;;;;;5065770;28;20109;-66
2022/07/23 06:15:51;;;;;;;10.30;9.35;;;23.80;99.90;;;;;;5047976;28;20414;-66
2022/07/23 06:18:19;;;;;;;10.25;9.25;;;23.80;99.90;;;;;;5061379;28;20048;-66
2022/07/23 06:20:46;;;;;;;9.82;8.98;;;23.90;99.90;;;;;;5062293;28;20060;-68
2022/07/23 06:23:17;;;;;;;9.23;8.43;;;23.90;99.90;;;;;;5066839;28;20048;-66
2022/07/23 06:25:44;;;;;;;9.27;8.35;;;24.00;99.90;;;;;;5065881;28;20083;-66
2022/07/23 06:28:12;;;;;;;9.63;8.73;;;24.10;99.90;;;;;;5058773;28;20064;-67
2022/07/23 06:30:41;;;;;;;10.02;8.95;;;24.20;99.90;;;;;;5054217;28;20495;-64
2022/07/23 06:33:11;;;;;;;9.65;8.75;;;24.20;99.90;;;;;;5051890;28;20033;-65
2022/07/23 06:35:38;;;;;;;9.82;8.82;;;24.30;99.90;;;;;;5056221;28;20048;-64
2022/07/23 06:38:07;;;;;;;12.25;9.68;;;24.20;99.90;;;;;;5050304;28;20128;-64
2022/07/23 06:40:34;;;;;;;9.93;9.02;;;24.30;99.90;;;;;;5051721;28;20128;-65
2022/07/23 06:43:02;;;;;;;11.70;9.23;;;24.40;99.90;;;;;;5063826;28;20041;-65
2022/07/23 06:45:33;;;;;;;11.37;9.10;;;24.50;99.90;;;;;;5057659;28;20041;-66
2022/07/23 06:48:02;;;;;;;9.68;8.77;;;24.60;99.90;;;;;;5063484;28;20119;-65
2022/07/23 06:50:29;;;;;;;10.07;9.13;;;24.70;99.90;;;;;;5053875;28;20067;-65
2022/07/23 06:52:56;;;;;;;9.38;8.27;;;24.90;99.90;;;;;;5062491;28;20041;-66
2022/07/23 06:55:24;;;;;;;10.10;9.20;;;25.20;99.90;;;;;;5059358;28;20574;-66
2022/07/23 06:57:51;;;;;;;10.32;9.25;;;25.40;99.90;;;;;;5058013;28;20068;-66
2022/07/23 07:00:19;;;;;;;10.65;9.55;;;25.50;99.90;;;;;;5058006;28;20388;-66
2022/07/23 07:02:47;;;;;;;10.88;9.25;;;25.60;99.90;;;;;;5059023;28;20052;-66
2022/07/23 07:05:14;;;;;;;12.93;9.48;;;25.50;99.90;;;;;;5053721;28;20090;-66
2022/07/23 07:07:41;;;;;;;10.77;9.65;;;25.60;99.90;;;;;;5054096;28;20537;-65
2022/07/23 07:10:09;;;;;;;10.27;9.18;;;25.60;99.90;;;;;;5058785;28;20134;-66
2022/07/23 07:12:42;;;;;;;10.93;9.82;;;25.50;99.90;;;;;;5053991;28;20429;-66
2022/07/23 07:15:09;;;;;;;11.73;9.90;;;25.70;99.90;;;;;;5053418;28;20052;-66
2022/07/23 07:17:37;;;;;;;10.68;9.57;;;25.80;99.90;;;;;;5055623;28;20044;-66
2022/07/23 07:20:05;;;;;;;14.30;10.52;;;25.80;99.90;;;;;;5061626;28;20136;-70
2022/07/23 07:22:32;;;;;;;11.77;10.27;;;25.90;99.90;;;;;;5060065;28;20048;-68
2022/07/23 07:25:00;;;;;;;12.00;10.70;;;25.90;99.90;;;;;;5060561;28;20579;-69
2022/07/23 07:27:27;;;;;;;11.15;10.13;;;25.70;99.90;;;;;;5053303;28;20111;-70
2022/07/23 07:29:54;;;;;;;11.63;10.45;;;25.60;99.90;;;;;;5059162;28;20549;-69
2022/07/23 07:32:22;;;;;;;11.95;10.73;;;25.60;99.90;;;;;;5053898;28;20053;-69
2022/07/23 07:35:09;;;;;;;11.23;10.07;;;25.50;99.90;;;;;;5053360;28;20467;-70
2022/07/23 07:37:37;;;;;;;10.55;9.65;;;25.40;99.90;;;;;;5057116;28;20048;-71
2022/07/23 07:40:05;;;;;;;12.10;10.90;;;25.40;99.90;;;;;;5059512;28;20701;-68
2022/07/23 07:42:32;;;;;;;12.82;10.02;;;25.40;99.90;;;;;;5065261;28;20062;-69
2022/07/23 07:45:00;;;;;;;13.50;10.25;;;25.50;99.90;;;;;;5058045;28;20037;-71
2022/07/23 07:47:27;;;;;;;12.32;10.98;;;25.50;99.90;;;;;;5064534;28;20120;-72
2022/07/23 07:49:56;;;;;;;15.13;10.95;;;25.50;99.90;;;;;;5058204;28;20059;-70
2022/07/23 07:52:24;;;;;;;12.25;10.25;;;25.30;99.90;;;;;;5051905;28;20047;-66
2022/07/23 07:54:52;;;;;;;12.05;10.85;;;25.10;99.90;;;;;;5052806;28;20094;-69
2022/07/23 07:57:19;;;;;;;12.48;10.65;;;24.90;99.90;;;;;;5057074;28;20052;-69
2022/07/23 07:59:46;;;;;;;12.98;11.27;;;24.60;99.90;;;;;;5068133;28;20040;-69
2022/07/23 08:02:20;;;;;;;12.98;11.20;;;24.50;99.90;;;;;;5056779;28;20059;-70
2022/07/23 08:04:48;;;;;;;13.35;10.95;;;24.30;99.90;;;;;;5056090;28;20048;-69
2022/07/23 08:07:16;;;;;;;12.57;11.27;;;24.20;99.90;;;;;;5064866;28;20044;-70
2022/07/23 08:09:43;;;;;;;11.77;10.68;;;24.20;99.90;;;;;;5067020;28;20571;-70
2022/07/23 08:12:10;;;;;;;13.25;10.93;;;24.40;99.90;;;;;;5050725;28;20043;-69
2022/07/23 08:14:38;;;;;;;12.55;11.35;;;24.40;99.90;;;;;;5054195;28;20041;-69
2022/07/23 08:17:05;;;;;;;12.30;11.10;;;24.50;99.90;;;;;;5051365;28;20530;-70
2022/07/23 08:19:41;;;;;;;15.77;11.68;;;24.60;99.90;;;;;;5062110;28;20571;-68
2022/07/23 08:22:09;;;;;;;13.55;12.10;;;24.50;99.90;;;;;;5067120;28;20079;-65
2022/07/23 08:24:36;;;;;;;12.38;11.15;;;24.50;99.90;;;;;;5064994;28;20513;-62
2022/07/23 08:27:04;;;;;;;15.05;10.88;;;24.60;99.90;;;;;;5061981;28;20041;-62
2022/07/23 08:29:31;;;;;;;15.95;12.30;;;24.70;99.90;;;;;;5070151;28;20050;-62
2022/07/23 08:31:58;;;;;;;12.27;10.90;;;24.70;99.90;;;;;;5063079;28;20032;-61
2022/07/23 08:34:40;;;;;;;12.98;11.18;;;24.30;99.90;;;;;;5064701;28;20048;-62
2022/07/23 08:37:10;;;;;;;12.45;10.23;;;24.20;99.90;;;;;;5070032;28;20140;-62
2022/07/23 08:39:37;;;;;;;12.23;11.07;;;24.10;99.90;;;;;;5067593;28;20068;-61
2022/07/23 08:42:06;;;;;;;14.48;11.88;;;24.00;99.90;;;;;;5063405;28;20489;-61
2022/07/23 08:44:35;;;;;;;12.57;11.27;;;23.80;99.90;;;;;;5070527;28;20044;-61
2022/07/23 08:47:03;;;;;;;12.18;10.90;;;23.70;99.90;;;;;;5056815;28;20041;-60
2022/07/23 08:49:30;;;;;;;11.63;10.05;;;23.50;99.90;;;;;;5065052;28;20399;-61
2022/07/23 08:51:58;;;;;;;10.93;9.82;;;23.40;99.90;;;;;;5068503;28;20040;-61
2022/07/23 08:54:26;;;;;;;10.45;9.43;;;23.30;99.90;;;;;;5057215;28;20053;-61
2022/07/23 08:56:53;;;;;;;10.52;9.52;;;23.10;99.90;;;;;;5067396;28;20474;-62
2022/07/23 08:59:20;;;;;;;10.95;9.82;;;23.20;99.90;;;;;;5068302;28;20114;-61
2022/07/23 09:01:48;;;;;;;11.50;10.25;;;23.00;99.90;;;;;;5063152;28;20387;-61
2022/07/23 09:04:16;;;;;;;10.45;9.43;;;22.90;99.90;;;;;;5061047;28;20036;-63
2022/07/23 09:06:43;;;;;;;11.48;10.30;;;22.80;99.90;;;;;;5069107;28;20119;-61
2022/07/23 09:09:18;;;;;;;14.52;11.65;;;22.70;99.90;;;;;;5066363;28;20033;-62
2022/07/23 09:11:47;;;;;;;12.90;10.23;;;22.70;99.90;;;;;;5066050;28;20114;-64
2022/07/23 09:14:15;;;;;;;13.07;10.02;;;22.70;99.90;;;;;;5068746;28;20064;-61
2022/07/23 09:16:43;;;;;;;11.23;10.02;;;22.60;99.90;;;;;;5066382;28;20094;-61
2022/07/23 09:19:13;;;;;;;13.70;10.07;;;22.60;99.90;;;;;;5069521;28;20036;-62
2022/07/23 09:21:40;;;;;;;12.77;9.95;;;22.50;99.90;;;;;;5066887;28;20106;-63
2022/07/23 09:24:09;;;;;;;12.20;10.05;;;22.30;99.90;;;;;;5066501;28;20098;-64
2022/07/23 09:26:42;;;;;;;11.00;9.63;;;22.30;99.90;;;;;;5048371;28;20561;-63
2022/07/23 09:29:20;;;;;;;10.70;9.73;;;22.20;99.90;;;;;;5068913;28;20543;-62
2022/07/23 09:31:50;;;;;;;9.82;8.90;;;22.20;99.90;;;;;;5059918;28;20472;-62
2022/07/23 09:34:18;;;;;;;11.27;10.13;;;22.20;99.90;;;;;;5050612;28;20037;-63
2022/07/23 09:36:48;;;;;;;10.27;9.05;;;22.10;99.90;;;;;;5056025;28;20036;-64
2022/07/23 09:39:25;;;;;;;11.18;9.35;;;22.10;99.90;;;;;;5055854;28;20045;-64
2022/07/23 09:41:53;;;;;;;10.27;9.27;;;21.90;99.90;;;;;;5065324;28;20493;-64
2022/07/23 09:44:21;;;;;;;9.63;8.50;;;21.70;99.90;;;;;;5056483;28;20131;-62
2022/07/23 09:46:59;;;;;;;10.70;9.70;;;21.50;99.90;;;;;;5068971;28;20422;-64
2022/07/23 09:49:28;;;;;;;12.98;9.45;;;21.50;99.90;;;;;;5051531;28;20044;-63
2022/07/23 09:52:01;;;;;;;10.40;9.30;;;21.30;99.90;;;;;;5066977;28;20139;-62
2022/07/23 09:54:32;;;;;;;10.18;9.13;;;21.00;99.90;;;;;;5062200;28;20495;-64
2022/07/23 09:57:04;;;;;;;12.82;9.90;;;20.90;99.90;;;;;;5060545;28;20033;-61
2022/07/23 09:59:34;;;;;;;12.07;9.32;;;20.90;99.90;;;;;;5067082;28;20130;-61
2022/07/23 10:02:02;;;;;;;10.75;8.57;;;20.70;99.90;;;;;;5057119;28;20060;-63
2022/07/23 10:04:35;;;;;;;13.32;10.35;;;20.70;99.90;;;;;;5054857;28;20740;-62
2022/07/23 10:07:17;;;;;;;10.30;9.20;;;20.70;99.90;;;;;;5051136;28;20070;-63
2022/07/23 10:10:04;;;;;;;11.63;9.60;;;20.70;99.90;;;;;;5057177;28;20041;-62
2022/07/23 10:15:12;;;;;;;11.43;9.27;;;20.50;99.90;;;;;;5064564;28;20098;-63
2022/07/23 10:17:39;;;;;;;14.07;9.80;;;20.50;99.90;;;;;;5068273;28;20115;-62
2022/07/23 10:20:07;;;;;;;10.38;9.27;;;20.60;99.90;;;;;;5067908;28;20041;-62
2022/07/23 10:22:44;;;;;;;12.57;9.65;;;20.30;99.90;;;;;;5055687;28;20044;-63
2022/07/23 10:25:30;;;;;;;10.80;9.32;;;20.30;99.90;;;;;;5047286;28;20138;-61
2022/07/23 10:28:31;;;;;;;11.75;9.77;;;20.40;99.90;;;;;;5055714;28;20037;-62
2022/07/23 10:31:21;;;;;;;11.07;9.35;;;20.50;99.90;;;;;;5053783;28;20063;-62
2022/07/23 10:34:17;;;;;;;12.25;9.90;;;20.70;99.90;;;;;;5060786;28;20060;-62
2022/07/23 10:36:53;;;;;;;10.70;9.15;;;21.00;99.90;;;;;;5054730;28;20056;-63
2022/07/23 10:39:33;;;;;;;11.63;9.38;;;21.30;99.90;;;;;;5067307;28;20552;-67
2022/07/23 10:42:14;;;;;;;12.43;10.85;;;21.60;99.90;;;;;;5059388;28;20040;-62
2022/07/23 10:44:47;;;;;;;11.85;9.82;;;21.80;99.90;;;;;;5058920;28;20538;-63
2022/07/23 10:47:40;;;;;;;11.48;9.90;;;21.80;99.90;;;;;;5066227;28;20548;-62
2022/07/23 10:50:30;;;;;;;11.43;9.98;;;21.90;99.90;;;;;;5066397;28;20415;-63
2022/07/23 10:53:09;;;;;;;11.25;9.60;;;22.00;99.90;;;;;;5056130;28;20120;-62
2022/07/23 10:55:36;;;;;;;12.73;10.40;;;22.00;99.90;;;;;;5061690;28;20056;-62
2022/07/23 10:58:05;;;;;;;13.20;9.68;;;22.00;99.90;;;;;;5063128;28;20055;-62
2022/07/23 11:00:35;;;;;;;11.77;10.55;;;22.10;99.90;;;;;;5063831;28;20044;-62
2022/07/23 11:03:07;;;;;;;13.48;10.35;;;22.00;99.90;;;;;;5065003;28;20569;-63
2022/07/23 11:05:45;;;;;;;12.27;10.32;;;22.10;99.90;;;;;;5034948;28;20064;-62
2022/07/23 11:08:16;;;;;;;13.80;10.35;;;22.20;99.90;;;;;;5054880;28;20489;-62
2022/07/23 11:10:45;;;;;;;13.05;11.05;;;22.20;99.90;;;;;;5065246;28;20055;-65
2022/07/23 11:13:21;;;;;;;11.25;10.02;;;22.20;99.90;;;;;;5066762;28;20132;-62
2022/07/23 11:16:01;;;;;;;12.25;10.18;;;22.20;99.90;;;;;;5066302;28;20044;-62
2022/07/23 11:18:44;;;;;;;12.27;10.55;;;22.30;99.90;;;;;;5064197;28;20567;-62
2022/07/23 11:24:27;;;;;;;12.77;10.18;;;22.60;99.90;;;;;;5068035;28;20040;-65
2022/07/23 11:27:01;;;;;;;10.93;9.82;;;22.70;99.90;;;;;;5055495;28;20053;-62
2022/07/23 11:29:32;;;;;;;14.23;11.10;;;23.10;99.90;;;;;;5068079;28;20037;-62
2022/07/23 11:32:07;;;;;;;11.77;8.95;;;23.10;99.90;;;;;;5056334;28;20196;-62
2022/07/23 11:34:40;;;;;;;10.48;9.30;;;23.20;99.90;;;;;;5047830;28;20129;-64
2022/07/23 11:37:10;;;;;;;9.90;8.90;;;23.30;99.90;;;;;;5048249;28;20072;-63
2022/07/23 11:39:39;;;;;;;10.63;9.35;;;23.40;99.90;;;;;;5048082;28;20081;-62
2022/07/23 11:42:07;;;;;;;10.95;9.15;;;23.50;99.90;;;;;;5046861;28;20491;-61
2022/07/23 11:44:37;;;;;;;10.55;8.75;;;23.70;99.90;;;;;;5050121;28;20040;-63
2022/07/23 11:47:14;;;;;;;14.02;9.70;;;24.00;99.90;;;;;;5051828;28;20048;-62
2022/07/23 11:50:03;;;;;;;10.88;8.55;;;24.10;99.90;;;;;;5063696;28;20051;-62
2022/07/23 11:52:30;;;;;;;10.35;9.00;;;24.40;99.90;;;;;;5058604;28;20079;-64
2022/07/23 11:55:09;;;;;;;10.50;9.02;;;24.90;99.90;;;;;;5063503;28;20068;-64
2022/07/23 11:57:39;;;;;;;9.30;8.35;;;25.60;99.90;;;;;;5046314;28;20053;-63
2022/07/23 12:00:11;;;;;;;9.30;8.35;;;25.90;99.90;;;;;;5065262;28;20043;-64
2022/07/23 12:02:44;;;;;;;9.75;8.40;;;26.30;99.90;;;;;;5060489;28;20041;-64
2022/07/23 12:05:22;;;;;;;9.68;8.68;;;27.20;99.90;;;;;;5046188;28;20060;-66
2022/07/23 12:07:52;;;;;;;9.95;8.55;;;27.20;99.90;;;;;;5051621;28;20061;-63
2022/07/23 12:10:24;;;;;;;9.52;8.63;;;27.40;99.90;;;;;;5061207;28;20110;-65
2022/07/23 12:12:54;;;;;;;9.90;8.90;;;27.80;99.90;;;;;;5066203;28;20048;-67
2022/07/23 12:15:29;;;;;;;10.85;9.77;;;27.80;99.90;;;;;;5063556;28;20048;-63
2022/07/23 12:17:56;;;;;;;10.10;9.13;;;27.60;99.90;;;;;;5063494;28;20131;-62
2022/07/23 12:20:26;;;;;;;10.15;8.70;;;27.80;99.90;;;;;;5047052;28;20098;-66
2022/07/23 12:22:57;;;;;;;10.52;9.43;;;28.60;99.90;;;;;;5058409;28;20040;-66
2022/07/23 12:25:29;;;;;;;9.88;8.90;;;29.00;99.90;;;;;;5051040;28;20068;-65
2022/07/23 12:28:13;;;;;;;10.73;9.73;;;29.70;99.90;;;;;;5066076;28;20044;-63
2022/07/23 12:30:52;;;;;;;10.85;9.85;;;30.00;99.90;;;;;;5068410;28;20056;-62
2022/07/23 12:33:31;;;;;;;10.55;9.25;;;30.20;99.90;;;;;;5059541;28;20139;-62
2022/07/23 12:36:01;;;;;;;11.75;9.55;;;30.00;99.90;;;;;;5061362;28;20624;-63
2022/07/23 12:38:43;;;;;;;12.68;10.18;;;29.80;99.90;;;;;;5064216;28;20535;-63
2022/07/23 12:41:11;;;;;;;10.80;9.70;;;29.50;99.90;;;;;;5058571;28;20511;-64
2022/07/23 12:43:43;;;;;;;10.15;8.98;;;29.80;99.90;;;;;;5069739;28;20063;-62
2022/07/23 12:46:14;;;;;;;10.90;9.80;;;30.10;99.90;;;;;;5035889;28;20041;-63
2022/07/23 12:48:49;;;;;;;10.40;9.48;;;29.50;99.90;;;;;;5063961;28;20503;-64
2022/07/23 12:51:30;;;;;;;10.57;9.57;;;30.10;99.90;;;;;;5069446;28;20045;-66
2022/07/23 12:54:07;;;;;;;13.20;9.68;;;30.70;99.90;;;;;;5068913;28;20515;-66